sensor_id;sensor_type;location;lat;lon;timestamp;pressure;altitude;pressure_sealevel;temperature;humidity
76195;BME280;64964;48.694;21.206;2022-11-20T00:01:46;97691.66;;;-0.86;70.37
76195;BME280;64964;48.694;21.206;2022-11-20T00:04:11;97682.94;;;-0.85;70.55
76195;BME280;64964;48.694;21.206;2022-11-20T00:06:37;97688.03;;;-0.83;70.28
76195;BME280;64964;48.694;21.206;2022-11-20T00:09:03;97683.44;;;-0.80;70.19
76195;BME280;64964;48.694;21.206;2022-11-20T00:11:31;97691.84;;;-0.76;70.22
76195;BME280;64964;48.694;21.206;2022-11-20T00:13:58;97677.84;;;-0.73;70.39
76195;BME280;64964;48.694;21.206;2022-11-20T00:16:26;97675.75;;;-0.68;69.98
76195;BME280;64964;48.694;21.206;2022-11-20T00:18:53;97680.59;;;-0.64;70.11
76195;BME280;64964;48.694;21.206;2022-11-20T00:21:21;97674.47;;;-0.63;69.93
76195;BME280;64964;48.694;21.206;2022-11-20T00:23:47;97668.44;;;-0.63;69.83
76195;BME280;64964;48.694;21.206;2022-11-20T00:26:15;97672.00;;;-0.64;69.96
76195;BME280;64964;48.694;21.206;2022-11-20T00:28:42;97667.63;;;-0.64;69.66
76195;BME280;64964;48.694;21.206;2022-11-20T00:31:14;97684.97;;;-0.64;69.72
76195;BME280;64964;48.694;21.206;2022-11-20T00:33:40;97685.28;;;-0.69;69.80
76195;BME280;64964;48.694;21.206;2022-11-20T00:36:11;97687.19;;;-0.71;70.33
76195;BME280;64964;48.694;21.206;2022-11-20T00:38:36;97685.50;;;-0.72;70.06
76195;BME280;64964;48.694;21.206;2022-11-20T00:41:07;97676.25;;;-0.76;70.27
76195;BME280;64964;48.694;21.206;2022-11-20T00:43:33;97673.66;;;-0.76;70.40
76195;BME280;64964;48.694;21.206;2022-11-20T00:46:07;97677.22;;;-0.77;70.60
76195;BME280;64964;48.694;21.206;2022-11-20T00:48:32;97662.66;;;-0.80;70.81
76195;BME280;64964;48.694;21.206;2022-11-20T00:50:58;97660.19;;;-0.81;70.65
76195;BME280;64964;48.694;21.206;2022-11-20T00:53:24;97653.56;;;-0.85;70.91
76195;BME280;64964;48.694;21.206;2022-11-20T00:56:01;97651.91;;;-0.86;70.75
76195;BME280;64964;48.694;21.206;2022-11-20T00:58:35;97640.69;;;-0.87;70.97
76195;BME280;64964;48.694;21.206;2022-11-20T01:03:27;97649.31;;;-0.86;70.91
76195;BME280;64964;48.694;21.206;2022-11-20T01:05:53;97656.16;;;-0.85;70.77
76195;BME280;64964;48.694;21.206;2022-11-20T01:08:18;97669.88;;;-0.83;70.91
76195;BME280;64964;48.694;21.206;2022-11-20T01:10:43;97678.34;;;-0.81;71.04
76195;BME280;64964;48.694;21.206;2022-11-20T01:13:09;97680.63;;;-0.77;70.70
76195;BME280;64964;48.694;21.206;2022-11-20T01:15:53;97683.03;;;-0.73;70.55
76195;BME280;64964;48.694;21.206;2022-11-20T01:18:18;97685.28;;;-0.69;70.68
76195;BME280;64964;48.694;21.206;2022-11-20T01:20:44;97691.22;;;-0.67;70.64
76195;BME280;64964;48.694;21.206;2022-11-20T01:23:09;97688.50;;;-0.65;70.63
76195;BME280;64964;48.694;21.206;2022-11-20T01:25:34;97685.09;;;-0.66;70.63
76195;BME280;64964;48.694;21.206;2022-11-20T01:28:00;97681.56;;;-0.65;70.51
76195;BME280;64964;48.694;21.206;2022-11-20T01:30:25;97672.72;;;-0.62;70.51
76195;BME280;64964;48.694;21.206;2022-11-20T01:32:50;97661.50;;;-0.63;70.68
76195;BME280;64964;48.694;21.206;2022-11-20T01:35:16;97654.97;;;-0.68;70.85
76195;BME280;64964;48.694;21.206;2022-11-20T01:37:41;97650.84;;;-0.71;70.87
76195;BME280;64964;48.694;21.206;2022-11-20T01:40:07;97654.47;;;-0.73;71.10
76195;BME280;64964;48.694;21.206;2022-11-20T01:42:33;97650.22;;;-0.74;71.10
76195;BME280;64964;48.694;21.206;2022-11-20T01:45:46;97653.03;;;-0.78;71.42
76195;BME280;64964;48.694;21.206;2022-11-20T01:48:18;97651.38;;;-0.79;70.96
76195;BME280;64964;48.694;21.206;2022-11-20T01:50:45;97655.84;;;-0.81;71.22
76195;BME280;64964;48.694;21.206;2022-11-20T01:53:14;97650.84;;;-0.84;71.04
76195;BME280;64964;48.694;21.206;2022-11-20T01:55:47;97668.09;;;-0.83;71.30
76195;BME280;64964;48.694;21.206;2022-11-20T01:58:15;97661.22;;;-0.84;71.34
76195;BME280;64964;48.694;21.206;2022-11-20T02:00:41;97655.84;;;-0.81;71.04
76195;BME280;64964;48.694;21.206;2022-11-20T02:03:09;97650.03;;;-0.84;71.63
76195;BME280;64964;48.694;21.206;2022-11-20T02:08:08;97646.84;;;-0.88;71.36
76195;BME280;64964;48.694;21.206;2022-11-20T02:10:34;97654.63;;;-0.88;71.26
76195;BME280;64964;48.694;21.206;2022-11-20T02:13:00;97635.84;;;-0.91;71.89
76195;BME280;64964;48.694;21.206;2022-11-20T02:15:44;97626.50;;;-0.94;71.87
76195;BME280;64964;48.694;21.206;2022-11-20T02:18:11;97625.53;;;-0.93;71.69
76195;BME280;64964;48.694;21.206;2022-11-20T02:20:41;97622.25;;;-0.95;71.73
76195;BME280;64964;48.694;21.206;2022-11-20T02:24:05;97612.91;;;-0.97;71.91
76195;BME280;64964;48.694;21.206;2022-11-20T02:26:23;97601.91;;;-1.01;71.82
76195;BME280;64964;48.694;21.206;2022-11-20T02:28:49;97596.00;;;-1.03;71.76
76195;BME280;64964;48.694;21.206;2022-11-20T02:31:15;97589.16;;;-1.04;71.97
76195;BME280;64964;48.694;21.206;2022-11-20T02:33:40;97589.16;;;-1.04;71.90
76195;BME280;64964;48.694;21.206;2022-11-20T02:36:08;97578.06;;;-1.06;72.05
76195;BME280;64964;48.694;21.206;2022-11-20T02:38:36;97577.22;;;-1.07;72.17
76195;BME280;64964;48.694;21.206;2022-11-20T02:41:02;97572.25;;;-1.10;72.00
76195;BME280;64964;48.694;21.206;2022-11-20T02:43:27;97565.09;;;-1.06;71.86
76195;BME280;64964;48.694;21.206;2022-11-20T02:45:53;97558.34;;;-1.09;72.14
76195;BME280;64964;48.694;21.206;2022-11-20T02:48:18;97567.06;;;-1.10;72.57
76195;BME280;64964;48.694;21.206;2022-11-20T02:50:43;97566.97;;;-1.08;72.22
76195;BME280;64964;48.694;21.206;2022-11-20T02:53:09;97570.38;;;-1.08;72.00
76195;BME280;64964;48.694;21.206;2022-11-20T02:55:35;97571.91;;;-1.05;71.77
76195;BME280;64964;48.694;21.206;2022-11-20T02:58:01;97560.09;;;-1.09;72.07
76195;BME280;64964;48.694;21.206;2022-11-20T03:00:26;97562.28;;;-1.03;71.50
76195;BME280;64964;48.694;21.206;2022-11-20T03:02:52;97566.53;;;-1.02;71.63
76195;BME280;64964;48.694;21.206;2022-11-20T03:05:17;97573.59;;;-1.04;72.02
76195;BME280;64964;48.694;21.206;2022-11-20T03:07:43;97570.88;;;-1.03;71.95
76195;BME280;64964;48.694;21.206;2022-11-20T03:10:09;97568.28;;;-1.03;71.76
76195;BME280;64964;48.694;21.206;2022-11-20T03:12:34;97559.69;;;-1.03;71.57
76195;BME280;64964;48.694;21.206;2022-11-20T03:15:00;97563.50;;;-0.96;71.50
76195;BME280;64964;48.694;21.206;2022-11-20T03:17:25;97569.41;;;-0.94;71.47
76195;BME280;64964;48.694;21.206;2022-11-20T03:19:50;97560.59;;;-0.91;71.65
76195;BME280;64964;48.694;21.206;2022-11-20T03:22:16;97557.75;;;-0.88;71.35
76195;BME280;64964;48.694;21.206;2022-11-20T03:24:41;97562.03;;;-0.87;71.57
76195;BME280;64964;48.694;21.206;2022-11-20T03:27:06;97556.72;;;-0.86;71.53
76195;BME280;64964;48.694;21.206;2022-11-20T03:29:32;97547.03;;;-0.84;71.57
76195;BME280;64964;48.694;21.206;2022-11-20T03:31:57;97556.50;;;-0.83;71.82
76195;BME280;64964;48.694;21.206;2022-11-20T03:34:23;97560.63;;;-0.80;71.48
76195;BME280;64964;48.694;21.206;2022-11-20T03:36:48;97563.13;;;-0.79;71.48
76195;BME280;64964;48.694;21.206;2022-11-20T03:39:13;97538.44;;;-0.84;71.55
76195;BME280;64964;48.694;21.206;2022-11-20T03:41:40;97533.66;;;-0.78;71.43
76195;BME280;64964;48.694;21.206;2022-11-20T03:44:09;97536.13;;;-0.76;71.53
76195;BME280;64964;48.694;21.206;2022-11-20T03:46:35;97535.41;;;-0.78;71.31
76195;BME280;64964;48.694;21.206;2022-11-20T03:49:00;97547.44;;;-0.77;71.18
76195;BME280;64964;48.694;21.206;2022-11-20T03:51:30;97553.47;;;-0.77;71.30
76195;BME280;64964;48.694;21.206;2022-11-20T03:53:58;97554.28;;;-0.76;71.50
76195;BME280;64964;48.694;21.206;2022-11-20T03:56:29;97552.44;;;-0.74;71.26
76195;BME280;64964;48.694;21.206;2022-11-20T03:58:55;97548.69;;;-0.70;71.19
76195;BME280;64964;48.694;21.206;2022-11-20T04:01:30;97552.91;;;-0.69;71.11
76195;BME280;64964;48.694;21.206;2022-11-20T04:03:57;97555.06;;;-0.63;71.07
76195;BME280;64964;48.694;21.206;2022-11-20T04:06:32;97554.22;;;-0.63;71.14
76195;BME280;64964;48.694;21.206;2022-11-20T04:08:58;97560.97;;;-0.61;71.25
76195;BME280;64964;48.694;21.206;2022-11-20T04:11:30;97564.19;;;-0.57;71.06
76195;BME280;64964;48.694;21.206;2022-11-20T04:14:01;97544.25;;;-0.57;71.40
76195;BME280;64964;48.694;21.206;2022-11-20T04:16:32;97539.88;;;-0.56;71.40
76195;BME280;64964;48.694;21.206;2022-11-20T04:19:00;97532.81;;;-0.54;71.37
76195;BME280;64964;48.694;21.206;2022-11-20T04:21:26;97536.25;;;-0.54;71.09
76195;BME280;64964;48.694;21.206;2022-11-20T04:23:52;97533.03;;;-0.57;71.11
76195;BME280;64964;48.694;21.206;2022-11-20T04:26:19;97518.28;;;-0.57;71.32
76195;BME280;64964;48.694;21.206;2022-11-20T04:28:45;97513.22;;;-0.58;71.31
76195;BME280;64964;48.694;21.206;2022-11-20T04:31:16;97514.25;;;-0.61;71.28
76195;BME280;64964;48.694;21.206;2022-11-20T04:33:42;97531.47;;;-0.60;71.22
76195;BME280;64964;48.694;21.206;2022-11-20T04:36:11;97516.72;;;-0.59;71.55
76195;BME280;64964;48.694;21.206;2022-11-20T04:38:37;97508.25;;;-0.61;71.53
76195;BME280;64964;48.694;21.206;2022-11-20T04:41:05;97514.13;;;-0.59;71.41
76195;BME280;64964;48.694;21.206;2022-11-20T04:43:32;97501.28;;;-0.61;71.48
76195;BME280;64964;48.694;21.206;2022-11-20T04:45:59;97516.13;;;-0.63;71.52
76195;BME280;64964;48.694;21.206;2022-11-20T04:48:26;97512.69;;;-0.63;71.65
76195;BME280;64964;48.694;21.206;2022-11-20T04:50:52;97509.28;;;-0.64;71.54
76195;BME280;64964;48.694;21.206;2022-11-20T04:53:18;97517.81;;;-0.62;71.54
76195;BME280;64964;48.694;21.206;2022-11-20T04:55:44;97525.34;;;-0.59;71.54
76195;BME280;64964;48.694;21.206;2022-11-20T04:58:09;97521.00;;;-0.58;71.51
76195;BME280;64964;48.694;21.206;2022-11-20T05:00:35;97518.28;;;-0.57;71.37
76195;BME280;64964;48.694;21.206;2022-11-20T05:03:00;97512.16;;;-0.56;71.45
76195;BME280;64964;48.694;21.206;2022-11-20T05:05:25;97509.47;;;-0.54;71.21
76195;BME280;64964;48.694;21.206;2022-11-20T05:07:51;97514.66;;;-0.54;71.35
76195;BME280;64964;48.694;21.206;2022-11-20T05:10:16;97505.31;;;-0.57;71.47
76195;BME280;64964;48.694;21.206;2022-11-20T05:12:41;97499.16;;;-0.56;71.39
76195;BME280;64964;48.694;21.206;2022-11-20T05:15:07;97504.34;;;-0.56;71.43
76195;BME280;64964;48.694;21.206;2022-11-20T05:17:33;97497.72;;;-0.60;71.45
76195;BME280;64964;48.694;21.206;2022-11-20T05:19:58;97493.50;;;-0.61;71.52
76195;BME280;64964;48.694;21.206;2022-11-20T05:22:23;97491.09;;;-0.64;71.71
76195;BME280;64964;48.694;21.206;2022-11-20T05:24:49;97505.75;;;-0.63;71.58
76195;BME280;64964;48.694;21.206;2022-11-20T05:27:14;97491.94;;;-0.63;71.47
76195;BME280;64964;48.694;21.206;2022-11-20T05:29:40;97481.47;;;-0.62;71.62
76195;BME280;64964;48.694;21.206;2022-11-20T05:32:05;97476.88;;;-0.58;71.45
76195;BME280;64964;48.694;21.206;2022-11-20T05:34:32;97481.13;;;-0.57;71.43
76195;BME280;64964;48.694;21.206;2022-11-20T05:36:57;97470.50;;;-0.54;71.65
76195;BME280;64964;48.694;21.206;2022-11-20T05:39:23;97472.97;;;-0.53;71.48
76195;BME280;64964;48.694;21.206;2022-11-20T05:41:48;97469.56;;;-0.53;71.49
76195;BME280;64964;48.694;21.206;2022-11-20T05:44:33;97457.53;;;-0.54;71.68
76195;BME280;64964;48.694;21.206;2022-11-20T05:46:59;97460.00;;;-0.53;71.44
76195;BME280;64964;48.694;21.206;2022-11-20T05:49:24;97457.19;;;-0.49;71.32
76195;BME280;64964;48.694;21.206;2022-11-20T05:51:49;97458.84;;;-0.48;71.25
76195;BME280;64964;48.694;21.206;2022-11-20T05:54:15;97461.03;;;-0.55;71.73
76195;BME280;64964;48.694;21.206;2022-11-20T05:56:40;97468.75;;;-0.54;71.52
76195;BME280;64964;48.694;21.206;2022-11-20T05:59:05;97459.06;;;-0.52;71.67
76195;BME280;64964;48.694;21.206;2022-11-20T06:01:31;97468.41;;;-0.49;71.54
76195;BME280;64964;48.694;21.206;2022-11-20T06:03:56;97472.03;;;-0.52;71.39
76195;BME280;64964;48.694;21.206;2022-11-20T06:06:22;97495.66;;;-0.43;71.31
76195;BME280;64964;48.694;21.206;2022-11-20T06:08:48;97474.06;;;-0.44;71.25
76195;BME280;64964;48.694;21.206;2022-11-20T06:11:14;97469.34;;;-0.39;71.24
76195;BME280;64964;48.694;21.206;2022-11-20T06:13:40;97468.41;;;-0.38;71.26
76195;BME280;64964;48.694;21.206;2022-11-20T06:16:06;97479.53;;;-0.36;71.27
76195;BME280;64964;48.694;21.206;2022-11-20T06:18:32;97476.09;;;-0.36;71.29
76195;BME280;64964;48.694;21.206;2022-11-20T06:21:02;97476.72;;;-0.33;71.41
76195;BME280;64964;48.694;21.206;2022-11-20T06:23:30;97484.38;;;-0.31;71.42
76195;BME280;64964;48.694;21.206;2022-11-20T06:25:55;97489.22;;;-0.27;71.43
76195;BME280;64964;48.694;21.206;2022-11-20T06:28:21;97487.44;;;-0.26;71.30
76195;BME280;64964;48.694;21.206;2022-11-20T06:30:47;97480.38;;;-0.24;71.29
76195;BME280;64964;48.694;21.206;2022-11-20T06:33:12;97475.88;;;-0.22;71.39
76195;BME280;64964;48.694;21.206;2022-11-20T06:35:38;97485.84;;;-0.16;71.15
76195;BME280;64964;48.694;21.206;2022-11-20T06:38:03;97487.34;;;-0.13;71.15
76195;BME280;64964;48.694;21.206;2022-11-20T06:40:28;97463.88;;;-0.12;70.79
76195;BME280;64964;48.694;21.206;2022-11-20T06:42:54;97460.19;;;-0.09;71.21
76195;BME280;64964;48.694;21.206;2022-11-20T06:45:20;97458.19;;;-0.06;71.09
76195;BME280;64964;48.694;21.206;2022-11-20T06:47:46;97473.78;;;-0.06;70.91
76195;BME280;64964;48.694;21.206;2022-11-20T06:50:11;97481.50;;;-0.04;70.94
76195;BME280;64964;48.694;21.206;2022-11-20T06:52:36;97478.53;;;0.01;70.89
76195;BME280;64964;48.694;21.206;2022-11-20T06:55:02;97466.38;;;0.01;71.09
76195;BME280;64964;48.694;21.206;2022-11-20T06:57:27;97468.25;;;-0.01;70.86
76195;BME280;64964;48.694;21.206;2022-11-20T06:59:53;97457.41;;;0.05;70.87
76195;BME280;64964;48.694;21.206;2022-11-20T07:02:18;97466.03;;;0.06;71.10
76195;BME280;64964;48.694;21.206;2022-11-20T07:04:44;97462.59;;;0.05;70.92
76195;BME280;64964;48.694;21.206;2022-11-20T07:07:09;97475.00;;;0.13;70.68
76195;BME280;64964;48.694;21.206;2022-11-20T07:09:34;97482.53;;;0.16;70.73
76195;BME280;64964;48.694;21.206;2022-11-20T07:12:00;97474.41;;;0.20;70.62
76195;BME280;64964;48.694;21.206;2022-11-20T07:14:25;97478.41;;;0.24;70.66
76195;BME280;64964;48.694;21.206;2022-11-20T07:16:51;97480.78;;;0.28;70.56
76195;BME280;64964;48.694;21.206;2022-11-20T07:19:16;97474.53;;;0.30;70.70
76195;BME280;64964;48.694;21.206;2022-11-20T07:21:41;97489.78;;;0.35;70.65
76195;BME280;64964;48.694;21.206;2022-11-20T07:24:07;97497.81;;;0.43;70.58
76195;BME280;64964;48.694;21.206;2022-11-20T07:26:32;97489.75;;;0.46;70.28
76195;BME280;64964;48.694;21.206;2022-11-20T07:28:58;97478.88;;;0.52;70.45
76195;BME280;64964;48.694;21.206;2022-11-20T07:31:23;97475.69;;;0.60;70.39
76195;BME280;64964;48.694;21.206;2022-11-20T07:33:48;97479.59;;;0.65;70.43
76195;BME280;64964;48.694;21.206;2022-11-20T07:36:14;97480.16;;;0.69;70.33
76195;BME280;64964;48.694;21.206;2022-11-20T07:38:39;97476.97;;;0.77;70.04
76195;BME280;64964;48.694;21.206;2022-11-20T07:41:05;97463.72;;;0.80;69.77
76195;BME280;64964;48.694;21.206;2022-11-20T07:43:31;97454.84;;;0.82;69.99
76195;BME280;64964;48.694;21.206;2022-11-20T07:45:58;97449.84;;;0.90;69.94
76195;BME280;64964;48.694;21.206;2022-11-20T07:48:24;97443.91;;;0.99;69.75
76195;BME280;64964;48.694;21.206;2022-11-20T07:50:53;97441.13;;;1.12;69.55
76195;BME280;64964;48.694;21.206;2022-11-20T07:53:19;97451.50;;;1.23;69.51
76195;BME280;64964;48.694;21.206;2022-11-20T07:55:46;97429.34;;;1.29;69.34
76195;BME280;64964;48.694;21.206;2022-11-20T07:58:11;97440.22;;;1.34;69.06
76195;BME280;64964;48.694;21.206;2022-11-20T08:00:37;97439.53;;;1.32;69.00
76195;BME280;64964;48.694;21.206;2022-11-20T08:03:04;97449.56;;;1.37;69.02
76195;BME280;64964;48.694;21.206;2022-11-20T08:05:29;97466.59;;;1.41;68.96
76195;BME280;64964;48.694;21.206;2022-11-20T08:07:55;97468.13;;;1.43;68.73
76195;BME280;64964;48.694;21.206;2022-11-20T08:10:20;97468.69;;;1.47;68.91
76195;BME280;64964;48.694;21.206;2022-11-20T08:12:47;97461.13;;;1.44;68.18
76195;BME280;64964;48.694;21.206;2022-11-20T08:15:32;97476.97;;;1.52;67.79
76195;BME280;64964;48.694;21.206;2022-11-20T08:18:03;97472.53;;;1.32;67.88
76195;BME280;64964;48.694;21.206;2022-11-20T08:20:29;97485.44;;;1.33;67.55
76195;BME280;64964;48.694;21.206;2022-11-20T08:22:59;97481.31;;;1.31;67.06
76195;BME280;64964;48.694;21.206;2022-11-20T08:25:25;97475.28;;;1.30;67.83
76195;BME280;64964;48.694;21.206;2022-11-20T08:27:51;97483.41;;;1.37;68.33
76195;BME280;64964;48.694;21.206;2022-11-20T08:30:16;97490.13;;;1.51;68.53
76195;BME280;64964;48.694;21.206;2022-11-20T08:32:42;97474.41;;;1.62;68.25
76195;BME280;64964;48.694;21.206;2022-11-20T08:35:07;97477.25;;;1.59;65.99
76195;BME280;64964;48.694;21.206;2022-11-20T08:37:33;97481.16;;;1.64;67.63
76195;BME280;64964;48.694;21.206;2022-11-20T08:39:58;97469.28;;;1.71;68.09
76195;BME280;64964;48.694;21.206;2022-11-20T08:42:24;97469.72;;;1.77;67.72
76195;BME280;64964;48.694;21.206;2022-11-20T08:44:49;97463.75;;;1.86;68.04
76195;BME280;64964;48.694;21.206;2022-11-20T08:47:14;97453.66;;;1.92;67.85
76195;BME280;64964;48.694;21.206;2022-11-20T08:49:40;97462.56;;;1.99;67.90
76195;BME280;64964;48.694;21.206;2022-11-20T08:52:05;97479.50;;;2.05;67.74
76195;BME280;64964;48.694;21.206;2022-11-20T08:54:30;97470.47;;;2.09;67.50
76195;BME280;64964;48.694;21.206;2022-11-20T08:56:56;97471.47;;;2.18;67.49
76195;BME280;64964;48.694;21.206;2022-11-20T08:59:21;97477.94;;;2.23;67.19
76195;BME280;64964;48.694;21.206;2022-11-20T09:01:46;97476.88;;;2.26;67.13
76195;BME280;64964;48.694;21.206;2022-11-20T09:04:12;97484.28;;;2.31;67.06
76195;BME280;64964;48.694;21.206;2022-11-20T09:06:39;97483.72;;;2.27;65.81
76195;BME280;64964;48.694;21.206;2022-11-20T09:09:05;97491.41;;;2.29;66.71
76195;BME280;64964;48.694;21.206;2022-11-20T09:11:31;97484.16;;;2.32;66.73
76195;BME280;64964;48.694;21.206;2022-11-20T09:13:56;97501.72;;;2.30;65.89
76195;BME280;64964;48.694;21.206;2022-11-20T09:16:22;97501.59;;;2.32;66.61
76195;BME280;64964;48.694;21.206;2022-11-20T09:18:49;97503.63;;;2.28;66.14
76195;BME280;64964;48.694;21.206;2022-11-20T09:21:15;97506.88;;;2.20;66.30
76195;BME280;64964;48.694;21.206;2022-11-20T09:23:41;97506.59;;;2.14;66.12
76195;BME280;64964;48.694;21.206;2022-11-20T09:26:11;97488.53;;;2.01;66.93
76195;BME280;64964;48.694;21.206;2022-11-20T09:28:37;97505.28;;;2.08;67.38
76195;BME280;64964;48.694;21.206;2022-11-20T09:31:09;97522.97;;;2.05;67.70
76195;BME280;64964;48.694;21.206;2022-11-20T09:33:39;97510.31;;;2.00;67.62
76195;BME280;64964;48.694;21.206;2022-11-20T09:36:05;97508.00;;;1.97;67.87
76195;BME280;64964;48.694;21.206;2022-11-20T09:38:30;97500.03;;;1.98;67.99
76195;BME280;64964;48.694;21.206;2022-11-20T09:41:00;97501.63;;;1.90;67.68
76195;BME280;64964;48.694;21.206;2022-11-20T09:44:04;97501.78;;;1.88;68.05
76195;BME280;64964;48.694;21.206;2022-11-20T09:54:45;97490.81;;;1.94;68.14
76195;BME280;64964;48.694;21.206;2022-11-20T09:57:14;97499.31;;;1.96;68.12
76195;BME280;64964;48.694;21.206;2022-11-20T09:59:46;97501.56;;;2.01;68.16
76195;BME280;64964;48.694;21.206;2022-11-20T10:07:48;97485.44;;;2.17;67.99
76195;BME280;64964;48.694;21.206;2022-11-20T10:10:31;97473.53;;;2.24;67.64
76195;BME280;64964;48.694;21.206;2022-11-20T10:13:20;97468.94;;;2.37;67.14
76195;BME280;64964;48.694;21.206;2022-11-20T10:16:36;97456.63;;;2.49;67.02
76195;BME280;64964;48.694;21.206;2022-11-20T10:29:38;97430.66;;;3.07;66.16
76195;BME280;64964;48.694;21.206;2022-11-20T10:32:13;97437.66;;;3.16;64.94
76195;BME280;64964;48.694;21.206;2022-11-20T10:34:57;97451.00;;;3.33;65.13
76195;BME280;64964;48.694;21.206;2022-11-20T10:37:26;97442.75;;;3.47;65.07
76195;BME280;64964;48.694;21.206;2022-11-20T10:42:50;97439.56;;;3.72;63.20
76195;BME280;64964;48.694;21.206;2022-11-20T10:48:10;97445.13;;;3.97;60.87
76195;BME280;64964;48.694;21.206;2022-11-20T10:50:41;97446.59;;;4.09;63.71
76195;BME280;64964;48.694;21.206;2022-11-20T10:56:39;97436.47;;;4.34;61.25
76195;BME280;64964;48.694;21.206;2022-11-20T10:59:28;97422.38;;;4.44;61.55
76195;BME280;64964;48.694;21.206;2022-11-20T11:01:57;97411.47;;;4.49;62.66
76195;BME280;64964;48.694;21.206;2022-11-20T11:09:55;97400.72;;;4.52;61.06
76195;BME280;64964;48.694;21.206;2022-11-20T11:12:24;97395.72;;;4.59;63.15
76195;BME280;64964;48.694;21.206;2022-11-20T11:14:52;97375.22;;;4.54;62.73
76195;BME280;64964;48.694;21.206;2022-11-20T11:17:21;97392.38;;;4.66;62.87
76195;BME280;64964;48.694;21.206;2022-11-20T11:20:00;97422.53;;;4.70;61.92
76195;BME280;64964;48.694;21.206;2022-11-20T11:22:28;97417.81;;;4.74;62.52
76195;BME280;64964;48.694;21.206;2022-11-20T11:24:54;97403.38;;;4.70;62.60
76195;BME280;64964;48.694;21.206;2022-11-20T11:27:19;97398.41;;;4.67;63.34
76195;BME280;64964;48.694;21.206;2022-11-20T11:29:45;97412.31;;;4.49;61.16
76195;BME280;64964;48.694;21.206;2022-11-20T11:32:12;97418.69;;;4.37;61.88
76195;BME280;64964;48.694;21.206;2022-11-20T11:34:38;97414.50;;;4.27;62.96
76195;BME280;64964;48.694;21.206;2022-11-20T11:37:04;97412.38;;;4.30;63.58
76195;BME280;64964;48.694;21.206;2022-11-20T11:39:37;97413.22;;;4.31;63.07
76195;BME280;64964;48.694;21.206;2022-11-20T11:42:10;97393.47;;;4.18;62.36
76195;BME280;64964;48.694;21.206;2022-11-20T11:44:44;97401.91;;;4.30;63.62
76195;BME280;64964;48.694;21.206;2022-11-20T11:52:44;97397.78;;;4.55;62.51
76195;BME280;64964;48.694;21.206;2022-11-20T11:55:17;97398.41;;;4.49;63.34
76195;BME280;64964;48.694;21.206;2022-11-20T11:57:54;97410.59;;;4.58;62.66
76195;BME280;64964;48.694;21.206;2022-11-20T12:00:22;97403.91;;;4.46;62.83
76195;BME280;64964;48.694;21.206;2022-11-20T12:05:44;97399.28;;;4.40;63.62
76195;BME280;64964;48.694;21.206;2022-11-20T12:11:10;97390.69;;;4.20;63.09
76195;BME280;64964;48.694;21.206;2022-11-20T12:16:27;97393.59;;;4.17;63.71
76195;BME280;64964;48.694;21.206;2022-11-20T12:18:54;97383.13;;;4.17;63.61
76195;BME280;64964;48.694;21.206;2022-11-20T12:29:39;97385.97;;;5.84;57.90
76195;BME280;64964;48.694;21.206;2022-11-20T12:35:04;97374.22;;;5.88;57.22
76195;BME280;64964;48.694;21.206;2022-11-20T12:40:32;97375.00;;;4.47;61.25
76195;BME280;64964;48.694;21.206;2022-11-20T12:43:02;97373.63;;;4.16;62.33
76195;BME280;64964;48.694;21.206;2022-11-20T12:46:02;97367.19;;;3.73;63.42
76195;BME280;64964;48.694;21.206;2022-11-20T12:54:11;97353.00;;;3.75;64.22
76195;BME280;64964;48.694;21.206;2022-11-20T12:56:53;97354.31;;;3.52;64.19
76195;BME280;64964;48.694;21.206;2022-11-20T12:59:46;97363.28;;;3.40;64.07
76195;BME280;64964;48.694;21.206;2022-11-20T13:07:33;97383.78;;;3.15;65.65
76195;BME280;64964;48.694;21.206;2022-11-20T13:10:00;97385.56;;;3.15;65.46
76195;BME280;64964;48.694;21.206;2022-11-20T13:12:45;97388.44;;;3.12;65.87
76195;BME280;64964;48.694;21.206;2022-11-20T13:17:54;97400.41;;;3.05;66.27
76195;BME280;64964;48.694;21.206;2022-11-20T13:20:20;97394.50;;;2.93;66.80
76195;BME280;64964;48.694;21.206;2022-11-20T13:22:48;97391.75;;;2.94;67.16
76195;BME280;64964;48.694;21.206;2022-11-20T13:25:34;97395.47;;;3.02;66.64
76195;BME280;64964;48.694;21.206;2022-11-20T13:28:03;97382.94;;;3.05;66.46
76195;BME280;64964;48.694;21.206;2022-11-20T13:30:30;97365.22;;;2.99;66.93
76195;BME280;64964;48.694;21.206;2022-11-20T13:35:36;97366.44;;;3.05;66.93
76195;BME280;64964;48.694;21.206;2022-11-20T13:38:11;97365.50;;;2.96;67.26
76195;BME280;64964;48.694;21.206;2022-11-20T13:40:59;97387.50;;;2.93;67.09
76195;BME280;64964;48.694;21.206;2022-11-20T13:43:47;97367.69;;;2.81;67.40
76195;BME280;64964;48.694;21.206;2022-11-20T13:46:13;97362.88;;;2.86;66.92
76195;BME280;64964;48.694;21.206;2022-11-20T13:48:44;97360.81;;;2.90;67.25
76195;BME280;64964;48.694;21.206;2022-11-20T14:01:55;97364.28;;;2.81;67.46
76195;BME280;64964;48.694;21.206;2022-11-20T14:04:30;97367.41;;;2.84;67.86
76195;BME280;64964;48.694;21.206;2022-11-20T14:06:58;97361.91;;;2.87;67.59
76195;BME280;64964;48.694;21.206;2022-11-20T14:09:32;97367.97;;;2.88;67.59
76195;BME280;64964;48.694;21.206;2022-11-20T14:11:59;97369.75;;;2.87;67.38
76195;BME280;64964;48.694;21.206;2022-11-20T14:14:29;97370.97;;;2.83;67.75
76195;BME280;64964;48.694;21.206;2022-11-20T14:17:15;97368.38;;;2.83;68.51
76195;BME280;64964;48.694;21.206;2022-11-20T14:19:43;97358.06;;;2.82;67.79
76195;BME280;64964;48.694;21.206;2022-11-20T14:22:18;97356.69;;;2.78;68.15
76195;BME280;64964;48.694;21.206;2022-11-20T14:24:44;97340.47;;;2.74;68.02
76195;BME280;64964;48.694;21.206;2022-11-20T14:27:28;97337.88;;;2.64;68.53
76195;BME280;64964;48.694;21.206;2022-11-20T14:29:53;97354.63;;;2.62;68.13
76195;BME280;64964;48.694;21.206;2022-11-20T14:32:22;97363.41;;;2.51;68.33
76195;BME280;64964;48.694;21.206;2022-11-20T14:34:50;97380.28;;;2.47;68.40
76195;BME280;64964;48.694;21.206;2022-11-20T14:37:37;97397.56;;;2.38;68.74
76195;BME280;64964;48.694;21.206;2022-11-20T14:40:21;97412.19;;;2.30;69.10
76195;BME280;64964;48.694;21.206;2022-11-20T14:42:47;97421.25;;;2.25;68.71